sensor_id;sensor_type;location;lat;lon;timestamp;P1;durP1;ratioP1;P2;durP2;ratioP2
46845;SDS011;33947;46.804;134.252;2024-01-27T00:01:19;55.38;;;23.92;;
46845;SDS011;33947;46.804;134.252;2024-01-27T00:04:47;96.95;;;37.08;;
46845;SDS011;33947;46.804;134.252;2024-01-27T00:07:54;65.63;;;30.48;;
46845;SDS011;33947;46.804;134.252;2024-01-27T00:11:01;146.98;;;56.90;;
46845;SDS011;33947;46.804;134.252;2024-01-27T00:14:08;50.80;;;30.00;;
46845;SDS011;33947;46.804;134.252;2024-01-27T00:17:17;79.18;;;35.33;;
46845;SDS011;33947;46.804;134.252;2024-01-27T00:20:27;154.55;;;60.72;;
46845;SDS011;33947;46.804;134.252;2024-01-27T00:23:35;111.03;;;47.65;;
46845;SDS011;33947;46.804;134.252;2024-01-27T00:26:43;189.40;;;68.40;;
46845;SDS011;33947;46.804;134.252;2024-01-27T00:29:50;124.55;;;49.67;;
46845;SDS011;33947;46.804;134.252;2024-01-27T00:32:59;169.63;;;58.85;;
46845;SDS011;33947;46.804;134.252;2024-01-27T00:36:06;171.65;;;68.25;;
46845;SDS011;33947;46.804;134.252;2024-01-27T00:39:14;257.35;;;105.47;;
46845;SDS011;33947;46.804;134.252;2024-01-27T00:42:21;183.50;;;62.70;;
46845;SDS011;33947;46.804;134.252;2024-01-27T00:45:29;185.57;;;64.25;;
46845;SDS011;33947;46.804;134.252;2024-01-27T00:48:38;214.38;;;74.15;;
46845;SDS011;33947;46.804;134.252;2024-01-27T00:51:45;113.82;;;40.60;;
46845;SDS011;33947;46.804;134.252;2024-01-27T00:54:53;190.40;;;68.78;;
46845;SDS011;33947;46.804;134.252;2024-01-27T00:58:01;155.30;;;57.42;;
46845;SDS011;33947;46.804;134.252;2024-01-27T01:01:08;189.77;;;68.95;;
46845;SDS011;33947;46.804;134.252;2024-01-27T01:04:16;268.75;;;84.30;;
46845;SDS011;33947;46.804;134.252;2024-01-27T01:07:24;141.35;;;55.35;;
46845;SDS011;33947;46.804;134.252;2024-01-27T01:10:32;189.35;;;67.55;;
46845;SDS011;33947;46.804;134.252;2024-01-27T01:13:39;123.75;;;48.42;;
46845;SDS011;33947;46.804;134.252;2024-01-27T01:16:48;205.70;;;68.60;;
46845;SDS011;33947;46.804;134.252;2024-01-27T01:20:00;151.20;;;54.17;;
46845;SDS011;33947;46.804;134.252;2024-01-27T01:23:09;188.63;;;60.58;;
46845;SDS011;33947;46.804;134.252;2024-01-27T01:26:19;163.68;;;57.65;;
46845;SDS011;33947;46.804;134.252;2024-01-27T01:29:29;164.27;;;60.08;;
46845;SDS011;33947;46.804;134.252;2024-01-27T01:32:36;171.85;;;63.80;;
46845;SDS011;33947;46.804;134.252;2024-01-27T01:35:50;182.15;;;64.97;;
46845;SDS011;33947;46.804;134.252;2024-01-27T01:38:57;185.20;;;70.30;;
46845;SDS011;33947;46.804;134.252;2024-01-27T01:42:04;187.68;;;63.63;;
46845;SDS011;33947;46.804;134.252;2024-01-27T01:45:12;202.13;;;68.05;;
46845;SDS011;33947;46.804;134.252;2024-01-27T01:48:22;196.75;;;71.07;;
46845;SDS011;33947;46.804;134.252;2024-01-27T01:51:30;193.13;;;68.93;;
46845;SDS011;33947;46.804;134.252;2024-01-27T01:54:40;110.25;;;43.75;;
46845;SDS011;33947;46.804;134.252;2024-01-27T01:57:49;123.90;;;46.03;;
46845;SDS011;33947;46.804;134.252;2024-01-27T02:00:57;102.30;;;38.25;;
46845;SDS011;33947;46.804;134.252;2024-01-27T02:04:10;119.95;;;42.47;;
46845;SDS011;33947;46.804;134.252;2024-01-27T02:07:22;91.43;;;34.92;;
46845;SDS011;33947;46.804;134.252;2024-01-27T02:10:31;74.40;;;33.20;;
46845;SDS011;33947;46.804;134.252;2024-01-27T02:13:49;73.05;;;25.80;;
46845;SDS011;33947;46.804;134.252;2024-01-27T02:17:30;68.82;;;26.50;;
46845;SDS011;33947;46.804;134.252;2024-01-27T02:20:38;69.97;;;26.35;;
46845;SDS011;33947;46.804;134.252;2024-01-27T02:23:47;66.53;;;27.95;;
46845;SDS011;33947;46.804;134.252;2024-01-27T02:26:57;71.07;;;27.15;;
46845;SDS011;33947;46.804;134.252;2024-01-27T02:30:04;99.30;;;39.30;;
46845;SDS011;33947;46.804;134.252;2024-01-27T02:33:12;113.47;;;43.17;;
46845;SDS011;33947;46.804;134.252;2024-01-27T02:36:19;91.90;;;35.70;;
46845;SDS011;33947;46.804;134.252;2024-01-27T02:39:26;117.13;;;45.17;;
46845;SDS011;33947;46.804;134.252;2024-01-27T02:42:36;87.15;;;33.17;;
46845;SDS011;33947;46.804;134.252;2024-01-27T02:45:45;60.88;;;24.10;;
46845;SDS011;33947;46.804;134.252;2024-01-27T02:48:52;65.55;;;28.60;;
46845;SDS011;33947;46.804;134.252;2024-01-27T02:52:01;77.65;;;31.10;;
46845;SDS011;33947;46.804;134.252;2024-01-27T02:55:08;88.15;;;30.95;;
46845;SDS011;33947;46.804;134.252;2024-01-27T02:58:16;61.53;;;26.20;;
46845;SDS011;33947;46.804;134.252;2024-01-27T03:01:23;71.35;;;29.67;;
46845;SDS011;33947;46.804;134.252;2024-01-27T03:04:31;58.75;;;22.48;;
46845;SDS011;33947;46.804;134.252;2024-01-27T03:07:39;177.77;;;51.35;;
46845;SDS011;33947;46.804;134.252;2024-01-27T03:10:46;53.72;;;21.13;;
46845;SDS011;33947;46.804;134.252;2024-01-27T03:13:55;51.70;;;21.55;;
46845;SDS011;33947;46.804;134.252;2024-01-27T03:17:03;122.82;;;36.72;;
46845;SDS011;33947;46.804;134.252;2024-01-27T03:20:13;41.88;;;17.90;;
46845;SDS011;33947;46.804;134.252;2024-01-27T03:23:45;22.98;;;11.55;;
46845;SDS011;33947;46.804;134.252;2024-01-27T03:26:53;29.08;;;10.27;;
46845;SDS011;33947;46.804;134.252;2024-01-27T03:30:08;36.00;;;13.05;;
46845;SDS011;33947;46.804;134.252;2024-01-27T03:33:15;22.02;;;9.35;;
46845;SDS011;33947;46.804;134.252;2024-01-27T03:36:26;20.15;;;10.25;;
46845;SDS011;33947;46.804;134.252;2024-01-27T03:39:42;25.92;;;11.38;;
46845;SDS011;33947;46.804;134.252;2024-01-27T03:42:53;41.25;;;16.08;;
46845;SDS011;33947;46.804;134.252;2024-01-27T03:46:03;28.60;;;11.43;;
46845;SDS011;33947;46.804;134.252;2024-01-27T03:49:11;27.38;;;11.85;;
46845;SDS011;33947;46.804;134.252;2024-01-27T03:52:19;24.17;;;9.98;;
46845;SDS011;33947;46.804;134.252;2024-01-27T03:55:27;28.13;;;12.35;;
46845;SDS011;33947;46.804;134.252;2024-01-27T03:58:37;35.92;;;12.57;;
46845;SDS011;33947;46.804;134.252;2024-01-27T04:01:54;21.63;;;11.00;;
46845;SDS011;33947;46.804;134.252;2024-01-27T04:05:03;31.00;;;14.20;;
46845;SDS011;33947;46.804;134.252;2024-01-27T04:08:17;32.47;;;15.88;;
46845;SDS011;33947;46.804;134.252;2024-01-27T04:11:27;32.58;;;12.05;;
46845;SDS011;33947;46.804;134.252;2024-01-27T04:14:38;36.97;;;17.30;;
46845;SDS011;33947;46.804;134.252;2024-01-27T04:17:46;28.85;;;12.02;;
46845;SDS011;33947;46.804;134.252;2024-01-27T04:20:59;50.25;;;20.33;;
46845;SDS011;33947;46.804;134.252;2024-01-27T04:24:06;37.63;;;16.23;;
46845;SDS011;33947;46.804;134.252;2024-01-27T04:27:15;196.43;;;80.25;;
46845;SDS011;33947;46.804;134.252;2024-01-27T04:30:25;24.63;;;10.80;;
46845;SDS011;33947;46.804;134.252;2024-01-27T04:33:35;22.48;;;10.38;;
46845;SDS011;33947;46.804;134.252;2024-01-27T04:36:42;69.20;;;34.95;;
46845;SDS011;33947;46.804;134.252;2024-01-27T04:39:50;24.42;;;11.05;;
46845;SDS011;33947;46.804;134.252;2024-01-27T04:42:57;29.13;;;16.65;;
46845;SDS011;33947;46.804;134.252;2024-01-27T04:46:04;19.63;;;9.68;;
46845;SDS011;33947;46.804;134.252;2024-01-27T04:49:13;16.95;;;9.55;;
46845;SDS011;33947;46.804;134.252;2024-01-27T04:52:21;21.98;;;12.48;;
46845;SDS011;33947;46.804;134.252;2024-01-27T04:55:29;36.65;;;18.00;;
46845;SDS011;33947;46.804;134.252;2024-01-27T04:58:36;40.33;;;19.45;;
46845;SDS011;33947;46.804;134.252;2024-01-27T05:01:44;17.23;;;7.60;;
46845;SDS011;33947;46.804;134.252;2024-01-27T05:04:53;239.18;;;93.57;;
46845;SDS011;33947;46.804;134.252;2024-01-27T05:08:01;15.00;;;6.60;;
46845;SDS011;33947;46.804;134.252;2024-01-27T05:11:09;40.58;;;13.68;;
46845;SDS011;33947;46.804;134.252;2024-01-27T05:14:16;29.63;;;11.20;;
46845;SDS011;33947;46.804;134.252;2024-01-27T05:17:24;25.50;;;8.00;;
46845;SDS011;33947;46.804;134.252;2024-01-27T05:20:33;10.18;;;5.35;;
46845;SDS011;33947;46.804;134.252;2024-01-27T05:23:39;12.93;;;7.28;;
46845;SDS011;33947;46.804;134.252;2024-01-27T05:26:46;22.73;;;6.82;;
46845;SDS011;33947;46.804;134.252;2024-01-27T05:29:54;23.58;;;8.57;;
46845;SDS011;33947;46.804;134.252;2024-01-27T05:33:01;15.90;;;6.03;;
46845;SDS011;33947;46.804;134.252;2024-01-27T05:36:10;25.33;;;7.00;;
46845;SDS011;33947;46.804;134.252;2024-01-27T05:39:18;18.02;;;7.05;;
46845;SDS011;33947;46.804;134.252;2024-01-27T05:42:25;16.02;;;6.38;;
46845;SDS011;33947;46.804;134.252;2024-01-27T05:45:32;16.33;;;8.95;;
46845;SDS011;33947;46.804;134.252;2024-01-27T05:48:40;14.75;;;6.53;;
46845;SDS011;33947;46.804;134.252;2024-01-27T05:51:50;9.35;;;4.18;;
46845;SDS011;33947;46.804;134.252;2024-01-27T05:54:58;18.00;;;11.02;;
46845;SDS011;33947;46.804;134.252;2024-01-27T05:58:05;11.30;;;4.00;;
46845;SDS011;33947;46.804;134.252;2024-01-27T06:01:11;30.23;;;9.98;;
46845;SDS011;33947;46.804;134.252;2024-01-27T06:04:19;149.65;;;33.03;;
46845;SDS011;33947;46.804;134.252;2024-01-27T06:07:28;11.88;;;5.75;;
46845;SDS011;33947;46.804;134.252;2024-01-27T06:10:36;9.95;;;4.10;;
46845;SDS011;33947;46.804;134.252;2024-01-27T06:13:43;9.98;;;5.10;;
46845;SDS011;33947;46.804;134.252;2024-01-27T06:16:51;7.05;;;3.05;;
46845;SDS011;33947;46.804;134.252;2024-01-27T06:19:58;9.38;;;4.32;;
46845;SDS011;33947;46.804;134.252;2024-01-27T06:23:08;58.83;;;16.67;;
46845;SDS011;33947;46.804;134.252;2024-01-27T06:26:15;190.55;;;45.30;;
46845;SDS011;33947;46.804;134.252;2024-01-27T06:29:22;380.02;;;158.65;;
46845;SDS011;33947;46.804;134.252;2024-01-27T06:32:33;109.82;;;44.28;;
46845;SDS011;33947;46.804;134.252;2024-01-27T06:35:40;29.77;;;14.30;;
46845;SDS011;33947;46.804;134.252;2024-01-27T06:38:49;17.15;;;8.70;;
46845;SDS011;33947;46.804;134.252;2024-01-27T06:41:56;18.45;;;7.53;;
46845;SDS011;33947;46.804;134.252;2024-01-27T06:45:26;14.70;;;6.30;;
46845;SDS011;33947;46.804;134.252;2024-01-27T06:48:37;20.90;;;8.20;;
46845;SDS011;33947;46.804;134.252;2024-01-27T06:51:44;9.52;;;4.40;;
46845;SDS011;33947;46.804;134.252;2024-01-27T06:55:37;5.47;;;3.55;;
46845;SDS011;33947;46.804;134.252;2024-01-27T07:02:57;14.00;;;8.05;;
46845;SDS011;33947;46.804;134.252;2024-01-27T07:06:05;10.65;;;6.40;;
46845;SDS011;33947;46.804;134.252;2024-01-27T07:09:12;10.43;;;5.18;;
46845;SDS011;33947;46.804;134.252;2024-01-27T07:12:25;12.98;;;6.07;;
46845;SDS011;33947;46.804;134.252;2024-01-27T07:15:33;12.23;;;5.43;;
46845;SDS011;33947;46.804;134.252;2024-01-27T07:18:41;20.13;;;7.30;;
46845;SDS011;33947;46.804;134.252;2024-01-27T07:21:50;23.33;;;8.68;;
46845;SDS011;33947;46.804;134.252;2024-01-27T07:24:57;21.83;;;9.35;;
46845;SDS011;33947;46.804;134.252;2024-01-27T07:28:08;24.52;;;10.23;;
46845;SDS011;33947;46.804;134.252;2024-01-27T07:31:15;16.77;;;9.00;;
46845;SDS011;33947;46.804;134.252;2024-01-27T07:34:23;21.88;;;9.57;;
46845;SDS011;33947;46.804;134.252;2024-01-27T07:37:34;17.92;;;9.32;;
46845;SDS011;33947;46.804;134.252;2024-01-27T07:40:43;25.48;;;11.27;;
46845;SDS011;33947;46.804;134.252;2024-01-27T07:43:55;17.90;;;8.23;;
46845;SDS011;33947;46.804;134.252;2024-01-27T07:47:03;19.17;;;8.55;;
46845;SDS011;33947;46.804;134.252;2024-01-27T07:50:12;17.80;;;7.65;;
46845;SDS011;33947;46.804;134.252;2024-01-27T07:53:19;21.30;;;9.23;;
46845;SDS011;33947;46.804;134.252;2024-01-27T07:56:30;31.58;;;12.60;;
46845;SDS011;33947;46.804;134.252;2024-01-27T07:59:39;22.95;;;10.90;;
46845;SDS011;33947;46.804;134.252;2024-01-27T08:02:47;18.45;;;9.38;;
46845;SDS011;33947;46.804;134.252;2024-01-27T08:05:56;26.48;;;11.18;;
46845;SDS011;33947;46.804;134.252;2024-01-27T08:09:03;30.15;;;11.38;;
46845;SDS011;33947;46.804;134.252;2024-01-27T08:12:10;36.95;;;12.95;;
46845;SDS011;33947;46.804;134.252;2024-01-27T08:15:24;24.67;;;10.65;;
46845;SDS011;33947;46.804;134.252;2024-01-27T08:18:31;31.88;;;11.60;;
46845;SDS011;33947;46.804;134.252;2024-01-27T08:21:38;26.65;;;9.35;;
46845;SDS011;33947;46.804;134.252;2024-01-27T08:24:45;20.75;;;9.77;;
46845;SDS011;33947;46.804;134.252;2024-01-27T08:27:52;34.08;;;13.32;;
46845;SDS011;33947;46.804;134.252;2024-01-27T08:31:03;33.00;;;14.25;;
46845;SDS011;33947;46.804;134.252;2024-01-27T08:34:13;57.38;;;22.23;;
46845;SDS011;33947;46.804;134.252;2024-01-27T08:37:20;72.40;;;25.45;;
46845;SDS011;33947;46.804;134.252;2024-01-27T08:40:28;39.78;;;14.55;;
46845;SDS011;33947;46.804;134.252;2024-01-27T08:43:35;48.58;;;14.88;;
46845;SDS011;33947;46.804;134.252;2024-01-27T08:46:44;39.17;;;14.15;;
46845;SDS011;33947;46.804;134.252;2024-01-27T08:49:50;49.72;;;17.67;;
46845;SDS011;33947;46.804;134.252;2024-01-27T08:52:58;95.75;;;30.08;;
46845;SDS011;33947;46.804;134.252;2024-01-27T08:56:05;58.47;;;20.00;;
46845;SDS011;33947;46.804;134.252;2024-01-27T08:59:14;99.22;;;30.30;;
46845;SDS011;33947;46.804;134.252;2024-01-27T09:02:23;129.13;;;36.88;;
46845;SDS011;33947;46.804;134.252;2024-01-27T09:05:31;114.38;;;37.00;;
46845;SDS011;33947;46.804;134.252;2024-01-27T09:08:39;110.50;;;34.80;;
46845;SDS011;33947;46.804;134.252;2024-01-27T09:11:45;126.53;;;39.33;;
46845;SDS011;33947;46.804;134.252;2024-01-27T09:14:55;118.90;;;37.95;;
46845;SDS011;33947;46.804;134.252;2024-01-27T09:18:04;188.25;;;47.92;;
46845;SDS011;33947;46.804;134.252;2024-01-27T09:21:12;135.18;;;39.45;;
46845;SDS011;33947;46.804;134.252;2024-01-27T09:24:25;111.78;;;32.78;;
46845;SDS011;33947;46.804;134.252;2024-01-27T09:27:32;101.30;;;31.85;;
46845;SDS011;33947;46.804;134.252;2024-01-27T09:30:39;74.95;;;23.90;;
46845;SDS011;33947;46.804;134.252;2024-01-27T09:33:49;84.80;;;28.20;;
46845;SDS011;33947;46.804;134.252;2024-01-27T09:36:57;90.57;;;28.08;;
46845;SDS011;33947;46.804;134.252;2024-01-27T09:40:05;71.90;;;22.48;;
46845;SDS011;33947;46.804;134.252;2024-01-27T09:43:13;76.30;;;26.85;;
46845;SDS011;33947;46.804;134.252;2024-01-27T09:46:21;92.97;;;27.08;;
46845;SDS011;33947;46.804;134.252;2024-01-27T09:49:31;157.90;;;44.17;;
46845;SDS011;33947;46.804;134.252;2024-01-27T09:52:40;139.90;;;43.13;;
46845;SDS011;33947;46.804;134.252;2024-01-27T09:55:47;149.75;;;44.25;;
46845;SDS011;33947;46.804;134.252;2024-01-27T09:58:54;162.52;;;47.35;;
46845;SDS011;33947;46.804;134.252;2024-01-27T10:02:02;165.25;;;47.85;;
46845;SDS011;33947;46.804;134.252;2024-01-27T10:05:16;155.45;;;48.00;;
46845;SDS011;33947;46.804;134.252;2024-01-27T10:08:24;144.55;;;42.70;;
46845;SDS011;33947;46.804;134.252;2024-01-27T10:11:31;138.27;;;40.13;;
46845;SDS011;33947;46.804;134.252;2024-01-27T10:14:42;127.22;;;43.72;;
46845;SDS011;33947;46.804;134.252;2024-01-27T10:17:53;173.77;;;53.92;;
46845;SDS011;33947;46.804;134.252;2024-01-27T10:21:24;180.32;;;51.92;;
46845;SDS011;33947;46.804;134.252;2024-01-27T10:24:31;274.73;;;77.20;;
46845;SDS011;33947;46.804;134.252;2024-01-27T10:27:40;191.05;;;62.38;;
46845;SDS011;33947;46.804;134.252;2024-01-27T10:30:51;176.23;;;55.88;;
46845;SDS011;33947;46.804;134.252;2024-01-27T10:34:02;187.75;;;54.60;;
46845;SDS011;33947;46.804;134.252;2024-01-27T10:37:16;163.27;;;53.58;;
46845;SDS011;33947;46.804;134.252;2024-01-27T10:40:31;156.43;;;51.05;;
46845;SDS011;33947;46.804;134.252;2024-01-27T10:43:41;155.00;;;51.00;;
46845;SDS011;33947;46.804;134.252;2024-01-27T10:46:49;145.93;;;53.53;;
46845;SDS011;33947;46.804;134.252;2024-01-27T10:49:57;169.73;;;56.47;;
46845;SDS011;33947;46.804;134.252;2024-01-27T10:53:14;123.90;;;46.60;;
46845;SDS011;33947;46.804;134.252;2024-01-27T10:56:36;176.95;;;58.42;;
46845;SDS011;33947;46.804;134.252;2024-01-27T10:59:59;143.95;;;51.70;;
46845;SDS011;33947;46.804;134.252;2024-01-27T11:03:14;136.00;;;45.42;;
46845;SDS011;33947;46.804;134.252;2024-01-27T11:06:28;134.30;;;46.47;;
46845;SDS011;33947;46.804;134.252;2024-01-27T11:09:46;141.70;;;46.65;;
46845;SDS011;33947;46.804;134.252;2024-01-27T11:16:25;125.10;;;42.90;;
46845;SDS011;33947;46.804;134.252;2024-01-27T11:19:32;116.13;;;38.47;;
46845;SDS011;33947;46.804;134.252;2024-01-27T11:22:40;132.05;;;42.90;;
46845;SDS011;33947;46.804;134.252;2024-01-27T11:25:50;124.65;;;42.50;;
46845;SDS011;33947;46.804;134.252;2024-01-27T11:29:07;103.05;;;40.15;;
46845;SDS011;33947;46.804;134.252;2024-01-27T11:32:25;124.10;;;39.65;;
46845;SDS011;33947;46.804;134.252;2024-01-27T11:35:34;124.05;;;39.85;;
46845;SDS011;33947;46.804;134.252;2024-01-27T11:38:46;122.53;;;39.42;;
46845;SDS011;33947;46.804;134.252;2024-01-27T11:42:03;111.25;;;38.10;;
46845;SDS011;33947;46.804;134.252;2024-01-27T11:45:11;126.45;;;42.53;;
46845;SDS011;33947;46.804;134.252;2024-01-27T11:48:18;151.27;;;50.85;;
46845;SDS011;33947;46.804;134.252;2024-01-27T11:51:26;174.27;;;53.60;;
46845;SDS011;33947;46.804;134.252;2024-01-27T11:54:33;185.95;;;56.95;;
46845;SDS011;33947;46.804;134.252;2024-01-27T11:57:45;167.23;;;56.78;;
46845;SDS011;33947;46.804;134.252;2024-01-27T12:00:52;179.98;;;59.42;;
46845;SDS011;33947;46.804;134.252;2024-01-27T12:04:00;149.60;;;51.95;;
46845;SDS011;33947;46.804;134.252;2024-01-27T12:07:08;152.82;;;50.60;;
46845;SDS011;33947;46.804;134.252;2024-01-27T12:10:17;170.38;;;54.65;;
46845;SDS011;33947;46.804;134.252;2024-01-27T12:13:26;281.05;;;85.28;;
46845;SDS011;33947;46.804;134.252;2024-01-27T12:16:35;193.82;;;62.40;;
46845;SDS011;33947;46.804;134.252;2024-01-27T12:19:45;198.23;;;59.80;;
46845;SDS011;33947;46.804;134.252;2024-01-27T12:23:01;192.30;;;61.47;;
46845;SDS011;33947;46.804;134.252;2024-01-27T12:26:13;169.05;;;58.70;;
46845;SDS011;33947;46.804;134.252;2024-01-27T12:29:22;163.43;;;52.40;;
46845;SDS011;33947;46.804;134.252;2024-01-27T12:32:29;161.35;;;53.78;;
46845;SDS011;33947;46.804;134.252;2024-01-27T12:35:37;135.52;;;46.55;;
46845;SDS011;33947;46.804;134.252;2024-01-27T12:38:46;137.70;;;46.15;;
46845;SDS011;33947;46.804;134.252;2024-01-27T12:41:54;170.27;;;52.58;;
46845;SDS011;33947;46.804;134.252;2024-01-27T12:45:03;153.50;;;50.45;;
46845;SDS011;33947;46.804;134.252;2024-01-27T12:48:12;140.85;;;43.42;;
46845;SDS011;33947;46.804;134.252;2024-01-27T12:51:19;144.65;;;44.95;;
46845;SDS011;33947;46.804;134.252;2024-01-27T12:54:27;99.32;;;39.67;;
46845;SDS011;33947;46.804;134.252;2024-01-27T12:57:36;156.18;;;50.67;;
46845;SDS011;33947;46.804;134.252;2024-01-27T13:00:45;150.95;;;56.47;;
46845;SDS011;33947;46.804;134.252;2024-01-27T13:03:52;173.68;;;54.22;;
46845;SDS011;33947;46.804;134.252;2024-01-27T13:07:00;164.52;;;54.25;;
46845;SDS011;33947;46.804;134.252;2024-01-27T13:10:08;161.90;;;53.25;;
46845;SDS011;33947;46.804;134.252;2024-01-27T13:13:16;170.30;;;54.72;;
46845;SDS011;33947;46.804;134.252;2024-01-27T13:16:25;188.38;;;59.03;;
46845;SDS011;33947;46.804;134.252;2024-01-27T13:19:33;171.95;;;57.72;;
46845;SDS011;33947;46.804;134.252;2024-01-27T13:22:40;199.98;;;66.10;;
46845;SDS011;33947;46.804;134.252;2024-01-27T13:25:47;268.13;;;80.43;;
46845;SDS011;33947;46.804;134.252;2024-01-27T13:29:14;268.58;;;91.30;;
46845;SDS011;33947;46.804;134.252;2024-01-27T13:32:23;240.50;;;80.05;;
46845;SDS011;33947;46.804;134.252;2024-01-27T13:35:30;317.92;;;99.28;;
46845;SDS011;33947;46.804;134.252;2024-01-27T13:38:37;231.73;;;68.22;;
46845;SDS011;33947;46.804;134.252;2024-01-27T13:41:44;204.00;;;63.15;;
46845;SDS011;33947;46.804;134.252;2024-01-27T13:44:51;225.43;;;73.95;;
46845;SDS011;33947;46.804;134.252;2024-01-27T13:48:00;210.23;;;67.50;;
46845;SDS011;33947;46.804;134.252;2024-01-27T13:51:07;151.95;;;54.05;;
46845;SDS011;33947;46.804;134.252;2024-01-27T13:54:14;213.85;;;71.30;;
46845;SDS011;33947;46.804;134.252;2024-01-27T13:57:22;169.40;;;53.53;;
46845;SDS011;33947;46.804;134.252;2024-01-27T14:00:30;128.27;;;47.08;;
46845;SDS011;33947;46.804;134.252;2024-01-27T14:03:40;142.98;;;45.53;;
46845;SDS011;33947;46.804;134.252;2024-01-27T14:06:50;164.82;;;55.80;;
46845;SDS011;33947;46.804;134.252;2024-01-27T14:09:58;101.45;;;38.47;;
46845;SDS011;33947;46.804;134.252;2024-01-27T14:13:07;40.85;;;18.92;;
46845;SDS011;33947;46.804;134.252;2024-01-27T14:16:14;61.08;;;24.15;;
46845;SDS011;33947;46.804;134.252;2024-01-27T14:19:26;79.18;;;27.17;;
46845;SDS011;33947;46.804;134.252;2024-01-27T14:22:33;72.32;;;27.65;;
46845;SDS011;33947;46.804;134.252;2024-01-27T14:25:41;128.35;;;39.80;;
46845;SDS011;33947;46.804;134.252;2024-01-27T14:28:50;102.22;;;32.90;;
46845;SDS011;33947;46.804;134.252;2024-01-27T14:31:57;116.35;;;35.33;;
46845;SDS011;33947;46.804;134.252;2024-01-27T14:35:06;81.45;;;29.15;;
46845;SDS011;33947;46.804;134.252;2024-01-27T14:38:14;82.72;;;31.10;;
46845;SDS011;33947;46.804;134.252;2024-01-27T14:41:20;69.97;;;27.98;;
46845;SDS011;33947;46.804;134.252;2024-01-27T14:44:27;58.75;;;22.13;;
46845;SDS011;33947;46.804;134.252;2024-01-27T14:47:34;42.75;;;16.10;;
46845;SDS011;33947;46.804;134.252;2024-01-27T14:50:43;40.30;;;17.65;;
46845;SDS011;33947;46.804;134.252;2024-01-27T14:53:51;71.90;;;25.83;;
46845;SDS011;33947;46.804;134.252;2024-01-27T14:56:58;62.05;;;23.30;;
46845;SDS011;33947;46.804;134.252;2024-01-27T15:03:50;116.00;;;42.47;;
46845;SDS011;33947;46.804;134.252;2024-01-27T15:06:59;108.13;;;36.22;;
46845;SDS011;33947;46.804;134.252;2024-01-27T15:10:09;90.22;;;34.65;;
46845;SDS011;33947;46.804;134.252;2024-01-27T15:13:17;92.28;;;27.05;;
46845;SDS011;33947;46.804;134.252;2024-01-27T15:16:27;60.00;;;28.42;;
46845;SDS011;33947;46.804;134.252;2024-01-27T15:19:39;74.47;;;27.52;;
46845;SDS011;33947;46.804;134.252;2024-01-27T15:22:50;242.55;;;75.93;;
46845;SDS011;33947;46.804;134.252;2024-01-27T15:25:57;111.43;;;41.50;;
46845;SDS011;33947;46.804;134.252;2024-01-27T15:29:07;73.78;;;34.25;;
46845;SDS011;33947;46.804;134.252;2024-01-27T15:32:16;85.10;;;33.97;;
46845;SDS011;33947;46.804;134.252;2024-01-27T15:35:28;62.78;;;22.45;;
46845;SDS011;33947;46.804;134.252;2024-01-27T15:38:39;62.42;;;24.80;;
46845;SDS011;33947;46.804;134.252;2024-01-27T15:41:46;103.80;;;32.20;;
46845;SDS011;33947;46.804;134.252;2024-01-27T15:44:58;54.78;;;22.90;;
46845;SDS011;33947;46.804;134.252;2024-01-27T15:48:06;49.80;;;24.42;;
46845;SDS011;33947;46.804;134.252;2024-01-27T15:51:16;172.02;;;54.10;;
46845;SDS011;33947;46.804;134.252;2024-01-27T15:54:26;63.10;;;30.23;;
46845;SDS011;33947;46.804;134.252;2024-01-27T15:57:34;43.45;;;17.60;;
46845;SDS011;33947;46.804;134.252;2024-01-27T16:00:41;62.40;;;22.10;;
46845;SDS011;33947;46.804;134.252;2024-01-27T16:03:48;73.43;;;22.77;;
46845;SDS011;33947;46.804;134.252;2024-01-27T16:06:56;47.15;;;17.48;;
46845;SDS011;33947;46.804;134.252;2024-01-27T16:10:05;36.88;;;14.82;;
46845;SDS011;33947;46.804;134.252;2024-01-27T16:13:13;61.28;;;24.15;;
46845;SDS011;33947;46.804;134.252;2024-01-27T16:16:20;43.65;;;15.80;;
46845;SDS011;33947;46.804;134.252;2024-01-27T16:19:28;53.25;;;18.70;;
46845;SDS011;33947;46.804;134.252;2024-01-27T16:22:36;58.30;;;24.80;;
46845;SDS011;33947;46.804;134.252;2024-01-27T16:25:45;63.22;;;28.13;;
46845;SDS011;33947;46.804;134.252;2024-01-27T16:28:52;42.45;;;18.52;;
46845;SDS011;33947;46.804;134.252;2024-01-27T16:32:00;74.60;;;27.48;;
46845;SDS011;33947;46.804;134.252;2024-01-27T16:35:07;49.33;;;19.92;;
46845;SDS011;33947;46.804;134.252;2024-01-27T16:38:15;66.45;;;25.20;;
46845;SDS011;33947;46.804;134.252;2024-01-27T16:41:23;47.92;;;25.52;;
46845;SDS011;33947;46.804;134.252;2024-01-27T16:44:30;115.88;;;34.45;;
46845;SDS011;33947;46.804;134.252;2024-01-27T16:47:38;114.40;;;36.30;;
46845;SDS011;33947;46.804;134.252;2024-01-27T16:50:46;69.78;;;28.63;;
46845;SDS011;33947;46.804;134.252;2024-01-27T16:53:53;61.47;;;22.30;;
46845;SDS011;33947;46.804;134.252;2024-01-27T16:57:03;90.90;;;27.65;;
46845;SDS011;33947;46.804;134.252;2024-01-27T17:00:11;48.17;;;18.67;;
46845;SDS011;33947;46.804;134.252;2024-01-27T17:03:19;90.40;;;27.42;;
46845;SDS011;33947;46.804;134.252;2024-01-27T17:06:27;86.03;;;29.08;;
46845;SDS011;33947;46.804;134.252;2024-01-27T17:09:44;87.68;;;30.42;;
46845;SDS011;33947;46.804;134.252;2024-01-27T17:12:53;108.82;;;29.13;;
46845;SDS011;33947;46.804;134.252;2024-01-27T17:16:00;97.20;;;26.30;;
46845;SDS011;33947;46.804;134.252;2024-01-27T17:19:07;57.78;;;22.63;;
46845;SDS011;33947;46.804;134.252;2024-01-27T17:22:15;98.78;;;33.33;;
46845;SDS011;33947;46.804;134.252;2024-01-27T17:25:22;122.32;;;37.33;;
46845;SDS011;33947;46.804;134.252;2024-01-27T17:28:30;53.25;;;23.33;;
46845;SDS011;33947;46.804;134.252;2024-01-27T17:31:38;81.80;;;32.50;;
46845;SDS011;33947;46.804;134.252;2024-01-27T17:34:44;108.43;;;31.83;;
46845;SDS011;33947;46.804;134.252;2024-01-27T17:37:52;84.15;;;22.27;;
46845;SDS011;33947;46.804;134.252;2024-01-27T17:40:59;71.20;;;30.83;;
46845;SDS011;33947;46.804;134.252;2024-01-27T17:44:08;64.25;;;30.13;;
46845;SDS011;33947;46.804;134.252;2024-01-27T17:47:16;59.55;;;22.88;;
46845;SDS011;33947;46.804;134.252;2024-01-27T17:50:23;261.90;;;77.65;;
46845;SDS011;33947;46.804;134.252;2024-01-27T17:53:31;25.23;;;10.88;;
46845;SDS011;33947;46.804;134.252;2024-01-27T17:56:38;57.75;;;25.50;;
46845;SDS011;33947;46.804;134.252;2024-01-27T17:59:46;55.25;;;19.85;;
46845;SDS011;33947;46.804;134.252;2024-01-27T18:02:56;28.95;;;15.25;;